Mount Moornapa, Australia
Current Conditions -  °F | °C
As of 11:00 PM on Sunday 23 Nov 2014 (Local Time) from YMAY Reporting Station
Scattered Clouds Scattered Clouds  
Wind Chill: 81°   Ceiling: Unl
Heat Index: 81°   Visibility: 6mi
Dew Point: 52°   Wind: 6mph
Humidity: 37%   Direction: 160°SSE
Pressure: 29.88"   Gusts: NA
Location:  37.75°S, 147.13°E
Report Text: YMAY 231200Z AUTO 16005KT 120V230 9999 // SCT105 27/11 Q1012
Loading
Personal Weather Stations






























Interactive Weather Map New forecast layout! Learn more

10-Day Weather Forecast

Advertisements
Track Severe Weather on mobile